sensor_id;sensor_type;location;lat;lon;timestamp;P1;durP1;ratioP1;P2;durP2;ratioP2
59074;SDS011;44860;53.020;6.738;2022-12-18T00:01:04;97.20;;;35.08;;
59074;SDS011;44860;53.020;6.738;2022-12-18T00:03:34;89.00;;;33.90;;
59074;SDS011;44860;53.020;6.738;2022-12-18T00:06:00;90.90;;;34.90;;
59074;SDS011;44860;53.020;6.738;2022-12-18T00:08:26;93.38;;;34.78;;
59074;SDS011;44860;53.020;6.738;2022-12-18T00:10:53;90.50;;;34.25;;
59074;SDS011;44860;53.020;6.738;2022-12-18T00:13:19;84.88;;;33.47;;
59074;SDS011;44860;53.020;6.738;2022-12-18T00:15:44;95.63;;;34.05;;
59074;SDS011;44860;53.020;6.738;2022-12-18T00:18:10;87.28;;;34.30;;
59074;SDS011;44860;53.020;6.738;2022-12-18T00:20:36;90.35;;;34.30;;
59074;SDS011;44860;53.020;6.738;2022-12-18T00:23:03;92.47;;;34.40;;
59074;SDS011;44860;53.020;6.738;2022-12-18T00:25:31;97.28;;;35.17;;
59074;SDS011;44860;53.020;6.738;2022-12-18T00:27:58;92.18;;;34.22;;
59074;SDS011;44860;53.020;6.738;2022-12-18T00:30:24;94.82;;;33.88;;
59074;SDS011;44860;53.020;6.738;2022-12-18T00:32:49;96.50;;;35.83;;
59074;SDS011;44860;53.020;6.738;2022-12-18T00:35:15;87.85;;;34.60;;
59074;SDS011;44860;53.020;6.738;2022-12-18T00:37:41;88.97;;;34.63;;
59074;SDS011;44860;53.020;6.738;2022-12-18T00:40:07;94.32;;;35.97;;
59074;SDS011;44860;53.020;6.738;2022-12-18T00:42:33;96.72;;;35.75;;
59074;SDS011;44860;53.020;6.738;2022-12-18T00:45:19;96.65;;;34.53;;
59074;SDS011;44860;53.020;6.738;2022-12-18T00:47:44;96.30;;;34.25;;
59074;SDS011;44860;53.020;6.738;2022-12-18T00:50:10;91.47;;;35.83;;
59074;SDS011;44860;53.020;6.738;2022-12-18T00:52:36;94.55;;;35.10;;
59074;SDS011;44860;53.020;6.738;2022-12-18T00:55:01;104.72;;;34.97;;
59074;SDS011;44860;53.020;6.738;2022-12-18T00:57:27;100.10;;;36.53;;
59074;SDS011;44860;53.020;6.738;2022-12-18T00:59:53;100.07;;;34.88;;
59074;SDS011;44860;53.020;6.738;2022-12-18T01:02:18;96.53;;;35.90;;
59074;SDS011;44860;53.020;6.738;2022-12-18T01:04:44;102.78;;;35.38;;
59074;SDS011;44860;53.020;6.738;2022-12-18T01:07:10;102.15;;;36.38;;
59074;SDS011;44860;53.020;6.738;2022-12-18T01:09:35;98.40;;;35.75;;
59074;SDS011;44860;53.020;6.738;2022-12-18T01:12:01;107.97;;;34.33;;
59074;SDS011;44860;53.020;6.738;2022-12-18T01:14:27;99.55;;;36.55;;
59074;SDS011;44860;53.020;6.738;2022-12-18T01:16:52;100.00;;;36.40;;
59074;SDS011;44860;53.020;6.738;2022-12-18T01:19:18;94.85;;;36.58;;
59074;SDS011;44860;53.020;6.738;2022-12-18T01:21:43;99.13;;;35.55;;
59074;SDS011;44860;53.020;6.738;2022-12-18T01:24:09;107.18;;;35.90;;
59074;SDS011;44860;53.020;6.738;2022-12-18T01:26:36;101.53;;;36.25;;
59074;SDS011;44860;53.020;6.738;2022-12-18T01:29:02;98.15;;;36.15;;
59074;SDS011;44860;53.020;6.738;2022-12-18T01:31:28;102.47;;;38.03;;
59074;SDS011;44860;53.020;6.738;2022-12-18T01:33:56;103.13;;;36.75;;
59074;SDS011;44860;53.020;6.738;2022-12-18T01:36:23;101.53;;;36.83;;
59074;SDS011;44860;53.020;6.738;2022-12-18T01:38:50;107.07;;;36.90;;
59074;SDS011;44860;53.020;6.738;2022-12-18T01:41:18;97.80;;;38.10;;
59074;SDS011;44860;53.020;6.738;2022-12-18T01:43:51;97.55;;;37.13;;
59074;SDS011;44860;53.020;6.738;2022-12-18T01:46:19;103.80;;;37.95;;
59074;SDS011;44860;53.020;6.738;2022-12-18T01:48:48;102.43;;;36.65;;
59074;SDS011;44860;53.020;6.738;2022-12-18T01:51:16;100.53;;;38.38;;
59074;SDS011;44860;53.020;6.738;2022-12-18T01:53:42;101.30;;;38.47;;
59074;SDS011;44860;53.020;6.738;2022-12-18T01:56:12;95.78;;;36.83;;
59074;SDS011;44860;53.020;6.738;2022-12-18T02:01:11;105.57;;;39.30;;
59074;SDS011;44860;53.020;6.738;2022-12-18T02:03:37;102.80;;;37.83;;
59074;SDS011;44860;53.020;6.738;2022-12-18T02:06:06;108.50;;;39.33;;
59074;SDS011;44860;53.020;6.738;2022-12-18T02:08:40;99.38;;;38.75;;
59074;SDS011;44860;53.020;6.738;2022-12-18T02:16:26;97.50;;;37.70;;
59074;SDS011;44860;53.020;6.738;2022-12-18T02:19:05;99.07;;;37.55;;
59074;SDS011;44860;53.020;6.738;2022-12-18T02:22:35;102.13;;;39.05;;
59074;SDS011;44860;53.020;6.738;2022-12-18T02:27:23;89.50;;;36.17;;
59074;SDS011;44860;53.020;6.738;2022-12-18T02:29:52;89.45;;;37.08;;
59074;SDS011;44860;53.020;6.738;2022-12-18T02:32:22;89.65;;;36.53;;
59074;SDS011;44860;53.020;6.738;2022-12-18T02:34:52;92.35;;;37.00;;
59074;SDS011;44860;53.020;6.738;2022-12-18T02:37:21;96.57;;;37.63;;
59074;SDS011;44860;53.020;6.738;2022-12-18T02:39:49;94.40;;;37.95;;
59074;SDS011;44860;53.020;6.738;2022-12-18T02:42:17;97.15;;;39.25;;
59074;SDS011;44860;53.020;6.738;2022-12-18T02:44:45;99.13;;;37.92;;
59074;SDS011;44860;53.020;6.738;2022-12-18T02:47:13;90.22;;;37.20;;
59074;SDS011;44860;53.020;6.738;2022-12-18T02:49:49;92.07;;;37.08;;
59074;SDS011;44860;53.020;6.738;2022-12-18T02:55:49;96.93;;;38.65;;
59074;SDS011;44860;53.020;6.738;2022-12-18T03:00:40;91.70;;;37.08;;
59074;SDS011;44860;53.020;6.738;2022-12-18T03:06:12;87.63;;;34.88;;
59074;SDS011;44860;53.020;6.738;2022-12-18T03:08:44;89.45;;;36.75;;
59074;SDS011;44860;53.020;6.738;2022-12-18T03:11:14;87.97;;;35.72;;
59074;SDS011;44860;53.020;6.738;2022-12-18T03:13:48;86.13;;;35.72;;
59074;SDS011;44860;53.020;6.738;2022-12-18T03:16:25;85.95;;;33.92;;
59074;SDS011;44860;53.020;6.738;2022-12-18T03:21:51;84.28;;;34.65;;
59074;SDS011;44860;53.020;6.738;2022-12-18T03:24:20;84.78;;;34.55;;
59074;SDS011;44860;53.020;6.738;2022-12-18T03:26:49;80.85;;;34.15;;
59074;SDS011;44860;53.020;6.738;2022-12-18T03:29:23;84.18;;;34.35;;
59074;SDS011;44860;53.020;6.738;2022-12-18T03:31:56;79.30;;;34.67;;
59074;SDS011;44860;53.020;6.738;2022-12-18T03:34:32;86.18;;;32.78;;
59074;SDS011;44860;53.020;6.738;2022-12-18T03:36:59;81.35;;;33.47;;
59074;SDS011;44860;53.020;6.738;2022-12-18T03:39:26;79.22;;;33.10;;
59074;SDS011;44860;53.020;6.738;2022-12-18T03:42:26;76.43;;;34.00;;
59074;SDS011;44860;53.020;6.738;2022-12-18T03:44:51;80.80;;;33.65;;
59074;SDS011;44860;53.020;6.738;2022-12-18T03:53:37;78.38;;;32.72;;
59074;SDS011;44860;53.020;6.738;2022-12-18T03:56:08;82.30;;;32.38;;
59074;SDS011;44860;53.020;6.738;2022-12-18T03:58:35;77.38;;;32.63;;
59074;SDS011;44860;53.020;6.738;2022-12-18T04:01:03;80.47;;;33.63;;
59074;SDS011;44860;53.020;6.738;2022-12-18T04:03:32;77.13;;;33.25;;
59074;SDS011;44860;53.020;6.738;2022-12-18T04:06:00;76.63;;;33.75;;
59074;SDS011;44860;53.020;6.738;2022-12-18T04:08:26;83.05;;;34.33;;
59074;SDS011;44860;53.020;6.738;2022-12-18T04:10:53;76.80;;;32.38;;
59074;SDS011;44860;53.020;6.738;2022-12-18T04:13:37;76.50;;;32.53;;
59074;SDS011;44860;53.020;6.738;2022-12-18T04:16:04;73.22;;;31.98;;
59074;SDS011;44860;53.020;6.738;2022-12-18T04:18:30;73.68;;;30.35;;
59074;SDS011;44860;53.020;6.738;2022-12-18T04:20:56;67.85;;;31.60;;
59074;SDS011;44860;53.020;6.738;2022-12-18T04:23:21;71.15;;;31.88;;
59074;SDS011;44860;53.020;6.738;2022-12-18T04:25:47;71.90;;;31.92;;
59074;SDS011;44860;53.020;6.738;2022-12-18T04:28:13;72.43;;;29.98;;
59074;SDS011;44860;53.020;6.738;2022-12-18T04:30:38;64.53;;;30.42;;
59074;SDS011;44860;53.020;6.738;2022-12-18T04:33:08;70.15;;;30.30;;
59074;SDS011;44860;53.020;6.738;2022-12-18T04:35:35;62.28;;;29.08;;
59074;SDS011;44860;53.020;6.738;2022-12-18T04:38:00;63.42;;;28.80;;
59074;SDS011;44860;53.020;6.738;2022-12-18T04:40:26;56.47;;;27.58;;
59074;SDS011;44860;53.020;6.738;2022-12-18T04:42:52;63.58;;;28.42;;
59074;SDS011;44860;53.020;6.738;2022-12-18T04:45:17;62.90;;;29.05;;
59074;SDS011;44860;53.020;6.738;2022-12-18T04:47:43;56.80;;;27.02;;
59074;SDS011;44860;53.020;6.738;2022-12-18T04:50:09;62.42;;;29.05;;
59074;SDS011;44860;53.020;6.738;2022-12-18T04:52:34;56.60;;;25.58;;
59074;SDS011;44860;53.020;6.738;2022-12-18T04:55:00;53.85;;;25.35;;
59074;SDS011;44860;53.020;6.738;2022-12-18T04:57:26;56.10;;;25.85;;
59074;SDS011;44860;53.020;6.738;2022-12-18T04:59:51;52.95;;;25.88;;
59074;SDS011;44860;53.020;6.738;2022-12-18T05:02:17;53.17;;;24.83;;
59074;SDS011;44860;53.020;6.738;2022-12-18T05:04:43;53.63;;;25.92;;
59074;SDS011;44860;53.020;6.738;2022-12-18T05:07:08;48.97;;;25.13;;
59074;SDS011;44860;53.020;6.738;2022-12-18T05:09:34;55.25;;;27.63;;
59074;SDS011;44860;53.020;6.738;2022-12-18T05:12:00;53.45;;;26.50;;
59074;SDS011;44860;53.020;6.738;2022-12-18T05:14:25;52.42;;;26.35;;
59074;SDS011;44860;53.020;6.738;2022-12-18T05:16:52;56.17;;;25.92;;
59074;SDS011;44860;53.020;6.738;2022-12-18T05:19:18;53.40;;;27.58;;
59074;SDS011;44860;53.020;6.738;2022-12-18T05:21:44;59.28;;;27.58;;
59074;SDS011;44860;53.020;6.738;2022-12-18T05:24:09;54.70;;;27.50;;
59074;SDS011;44860;53.020;6.738;2022-12-18T05:26:35;51.78;;;26.98;;
59074;SDS011;44860;53.020;6.738;2022-12-18T05:29:00;57.92;;;27.35;;
59074;SDS011;44860;53.020;6.738;2022-12-18T05:31:26;53.63;;;25.15;;
59074;SDS011;44860;53.020;6.738;2022-12-18T05:33:52;49.88;;;26.08;;
59074;SDS011;44860;53.020;6.738;2022-12-18T05:36:17;56.88;;;27.05;;
59074;SDS011;44860;53.020;6.738;2022-12-18T05:38:43;55.38;;;26.98;;
59074;SDS011;44860;53.020;6.738;2022-12-18T05:41:09;52.85;;;25.75;;
59074;SDS011;44860;53.020;6.738;2022-12-18T05:43:35;56.90;;;27.73;;
59074;SDS011;44860;53.020;6.738;2022-12-18T05:46:03;54.92;;;25.15;;
59074;SDS011;44860;53.020;6.738;2022-12-18T05:48:30;48.58;;;25.10;;
59074;SDS011;44860;53.020;6.738;2022-12-18T05:50:56;51.80;;;25.90;;
59074;SDS011;44860;53.020;6.738;2022-12-18T05:53:29;51.05;;;25.52;;
59074;SDS011;44860;53.020;6.738;2022-12-18T05:55:59;45.63;;;24.02;;
59074;SDS011;44860;53.020;6.738;2022-12-18T05:58:26;46.45;;;23.92;;
59074;SDS011;44860;53.020;6.738;2022-12-18T06:00:52;50.15;;;24.85;;
59074;SDS011;44860;53.020;6.738;2022-12-18T06:03:17;46.65;;;23.80;;
59074;SDS011;44860;53.020;6.738;2022-12-18T06:05:44;48.08;;;24.08;;
59074;SDS011;44860;53.020;6.738;2022-12-18T06:08:10;48.88;;;24.40;;
59074;SDS011;44860;53.020;6.738;2022-12-18T06:10:37;45.50;;;24.42;;
59074;SDS011;44860;53.020;6.738;2022-12-18T06:13:03;47.25;;;24.38;;
59074;SDS011;44860;53.020;6.738;2022-12-18T06:15:29;48.22;;;24.27;;
59074;SDS011;44860;53.020;6.738;2022-12-18T06:17:55;47.72;;;23.85;;
59074;SDS011;44860;53.020;6.738;2022-12-18T06:20:21;48.60;;;23.77;;
59074;SDS011;44860;53.020;6.738;2022-12-18T06:22:47;44.65;;;24.40;;
59074;SDS011;44860;53.020;6.738;2022-12-18T06:25:13;44.33;;;23.73;;
59074;SDS011;44860;53.020;6.738;2022-12-18T06:27:39;47.40;;;24.60;;
59074;SDS011;44860;53.020;6.738;2022-12-18T06:30:05;51.05;;;24.10;;
59074;SDS011;44860;53.020;6.738;2022-12-18T06:32:31;45.65;;;22.98;;
59074;SDS011;44860;53.020;6.738;2022-12-18T06:34:57;45.67;;;23.45;;
59074;SDS011;44860;53.020;6.738;2022-12-18T06:37:23;45.28;;;23.08;;
59074;SDS011;44860;53.020;6.738;2022-12-18T06:39:52;47.83;;;24.05;;
59074;SDS011;44860;53.020;6.738;2022-12-18T06:42:18;45.80;;;23.95;;
59074;SDS011;44860;53.020;6.738;2022-12-18T06:44:44;44.10;;;23.33;;
59074;SDS011;44860;53.020;6.738;2022-12-18T06:47:09;45.50;;;23.48;;
59074;SDS011;44860;53.020;6.738;2022-12-18T06:49:35;40.95;;;22.67;;
59074;SDS011;44860;53.020;6.738;2022-12-18T06:52:01;44.88;;;22.88;;
59074;SDS011;44860;53.020;6.738;2022-12-18T06:54:26;44.55;;;22.83;;
59074;SDS011;44860;53.020;6.738;2022-12-18T06:56:52;41.28;;;22.27;;
59074;SDS011;44860;53.020;6.738;2022-12-18T06:59:18;41.95;;;22.27;;
59074;SDS011;44860;53.020;6.738;2022-12-18T07:01:43;43.85;;;22.63;;
59074;SDS011;44860;53.020;6.738;2022-12-18T07:04:09;45.10;;;23.13;;
59074;SDS011;44860;53.020;6.738;2022-12-18T07:06:35;48.08;;;23.98;;
59074;SDS011;44860;53.020;6.738;2022-12-18T07:09:00;48.78;;;25.23;;
59074;SDS011;44860;53.020;6.738;2022-12-18T07:11:29;43.03;;;22.52;;
59074;SDS011;44860;53.020;6.738;2022-12-18T07:13:59;42.83;;;22.67;;
59074;SDS011;44860;53.020;6.738;2022-12-18T07:16:25;48.25;;;23.67;;
59074;SDS011;44860;53.020;6.738;2022-12-18T07:18:50;48.13;;;23.45;;
59074;SDS011;44860;53.020;6.738;2022-12-18T07:21:17;43.20;;;23.38;;
59074;SDS011;44860;53.020;6.738;2022-12-18T07:23:44;45.63;;;23.48;;
59074;SDS011;44860;53.020;6.738;2022-12-18T07:26:13;46.38;;;23.75;;
59074;SDS011;44860;53.020;6.738;2022-12-18T07:28:40;41.50;;;22.92;;
59074;SDS011;44860;53.020;6.738;2022-12-18T07:31:07;46.50;;;24.13;;
59074;SDS011;44860;53.020;6.738;2022-12-18T07:33:35;43.03;;;23.05;;
59074;SDS011;44860;53.020;6.738;2022-12-18T07:36:02;42.47;;;22.52;;
59074;SDS011;44860;53.020;6.738;2022-12-18T07:38:29;43.50;;;22.98;;
59074;SDS011;44860;53.020;6.738;2022-12-18T07:41:02;42.17;;;23.08;;
59074;SDS011;44860;53.020;6.738;2022-12-18T07:43:29;41.75;;;22.65;;
59074;SDS011;44860;53.020;6.738;2022-12-18T07:45:55;42.22;;;22.73;;
59074;SDS011;44860;53.020;6.738;2022-12-18T07:48:20;42.42;;;22.85;;
59074;SDS011;44860;53.020;6.738;2022-12-18T07:50:46;45.13;;;22.65;;
59074;SDS011;44860;53.020;6.738;2022-12-18T07:53:12;43.80;;;23.67;;
59074;SDS011;44860;53.020;6.738;2022-12-18T07:55:39;42.45;;;23.25;;
59074;SDS011;44860;53.020;6.738;2022-12-18T07:58:06;39.95;;;22.17;;
59074;SDS011;44860;53.020;6.738;2022-12-18T08:00:32;41.40;;;22.98;;
59074;SDS011;44860;53.020;6.738;2022-12-18T08:02:58;39.05;;;21.77;;
59074;SDS011;44860;53.020;6.738;2022-12-18T08:05:24;43.13;;;22.20;;
59074;SDS011;44860;53.020;6.738;2022-12-18T08:07:50;39.08;;;22.27;;
59074;SDS011;44860;53.020;6.738;2022-12-18T08:10:16;39.45;;;21.58;;
59074;SDS011;44860;53.020;6.738;2022-12-18T08:12:42;39.40;;;22.48;;
59074;SDS011;44860;53.020;6.738;2022-12-18T08:15:08;38.97;;;22.13;;
59074;SDS011;44860;53.020;6.738;2022-12-18T08:17:34;41.47;;;21.85;;
59074;SDS011;44860;53.020;6.738;2022-12-18T08:19:59;40.67;;;22.08;;
59074;SDS011;44860;53.020;6.738;2022-12-18T08:22:25;36.65;;;21.25;;
59074;SDS011;44860;53.020;6.738;2022-12-18T08:24:51;39.97;;;20.67;;
59074;SDS011;44860;53.020;6.738;2022-12-18T08:27:16;36.58;;;21.30;;
59074;SDS011;44860;53.020;6.738;2022-12-18T08:29:42;35.25;;;20.35;;
59074;SDS011;44860;53.020;6.738;2022-12-18T08:32:08;37.65;;;21.67;;
59074;SDS011;44860;53.020;6.738;2022-12-18T08:34:34;34.40;;;20.08;;
59074;SDS011;44860;53.020;6.738;2022-12-18T08:36:59;36.05;;;21.65;;
59074;SDS011;44860;53.020;6.738;2022-12-18T08:39:25;37.55;;;21.35;;
59074;SDS011;44860;53.020;6.738;2022-12-18T08:41:51;38.13;;;21.73;;
59074;SDS011;44860;53.020;6.738;2022-12-18T08:44:40;34.58;;;21.25;;
59074;SDS011;44860;53.020;6.738;2022-12-18T08:47:06;41.85;;;21.70;;
59074;SDS011;44860;53.020;6.738;2022-12-18T08:49:32;38.33;;;21.67;;
59074;SDS011;44860;53.020;6.738;2022-12-18T08:51:58;34.50;;;21.25;;
59074;SDS011;44860;53.020;6.738;2022-12-18T08:54:24;35.22;;;20.88;;
59074;SDS011;44860;53.020;6.738;2022-12-18T08:56:50;38.08;;;21.90;;
59074;SDS011;44860;53.020;6.738;2022-12-18T08:59:17;34.85;;;21.35;;
59074;SDS011;44860;53.020;6.738;2022-12-18T09:01:43;35.50;;;21.65;;
59074;SDS011;44860;53.020;6.738;2022-12-18T09:04:09;37.45;;;21.30;;
59074;SDS011;44860;53.020;6.738;2022-12-18T09:06:35;37.42;;;20.70;;
59074;SDS011;44860;53.020;6.738;2022-12-18T09:09:01;37.38;;;21.40;;
59074;SDS011;44860;53.020;6.738;2022-12-18T09:11:28;34.10;;;20.17;;
59074;SDS011;44860;53.020;6.738;2022-12-18T09:13:55;34.65;;;21.30;;
59074;SDS011;44860;53.020;6.738;2022-12-18T09:16:22;36.95;;;21.65;;
59074;SDS011;44860;53.020;6.738;2022-12-18T09:18:49;36.53;;;20.90;;
59074;SDS011;44860;53.020;6.738;2022-12-18T09:21:15;36.80;;;20.50;;
59074;SDS011;44860;53.020;6.738;2022-12-18T09:23:43;33.53;;;20.50;;
59074;SDS011;44860;53.020;6.738;2022-12-18T09:26:09;33.63;;;19.88;;
59074;SDS011;44860;53.020;6.738;2022-12-18T09:28:34;33.42;;;19.38;;
59074;SDS011;44860;53.020;6.738;2022-12-18T09:31:03;34.90;;;19.90;;
59074;SDS011;44860;53.020;6.738;2022-12-18T09:33:31;32.28;;;18.85;;
59074;SDS011;44860;53.020;6.738;2022-12-18T09:35:57;32.35;;;19.13;;
59074;SDS011;44860;53.020;6.738;2022-12-18T09:38:22;30.23;;;18.75;;
59074;SDS011;44860;53.020;6.738;2022-12-18T09:40:50;33.47;;;18.67;;
59074;SDS011;44860;53.020;6.738;2022-12-18T09:43:19;30.27;;;17.70;;
59074;SDS011;44860;53.020;6.738;2022-12-18T09:46:01;27.42;;;17.27;;
59074;SDS011;44860;53.020;6.738;2022-12-18T09:48:32;29.17;;;17.52;;
59074;SDS011;44860;53.020;6.738;2022-12-18T09:51:22;26.67;;;16.98;;
59074;SDS011;44860;53.020;6.738;2022-12-18T09:53:52;27.17;;;16.27;;
59074;SDS011;44860;53.020;6.738;2022-12-18T09:56:22;24.85;;;15.63;;
59074;SDS011;44860;53.020;6.738;2022-12-18T10:01:26;25.35;;;15.15;;
59074;SDS011;44860;53.020;6.738;2022-12-18T10:03:53;24.77;;;15.90;;
59074;SDS011;44860;53.020;6.738;2022-12-18T10:06:35;26.75;;;16.00;;
59074;SDS011;44860;53.020;6.738;2022-12-18T10:11:40;28.63;;;15.13;;
59074;SDS011;44860;53.020;6.738;2022-12-18T10:14:32;24.65;;;14.25;;
59074;SDS011;44860;53.020;6.738;2022-12-18T10:17:18;23.48;;;14.85;;
59074;SDS011;44860;53.020;6.738;2022-12-18T10:20:02;22.90;;;14.13;;
59074;SDS011;44860;53.020;6.738;2022-12-18T10:22:43;24.30;;;13.68;;
59074;SDS011;44860;53.020;6.738;2022-12-18T10:27:51;20.33;;;13.30;;
59074;SDS011;44860;53.020;6.738;2022-12-18T10:30:21;19.95;;;13.68;;
59074;SDS011;44860;53.020;6.738;2022-12-18T10:32:47;20.30;;;12.82;;
59074;SDS011;44860;53.020;6.738;2022-12-18T10:35:21;21.02;;;12.88;;
59074;SDS011;44860;53.020;6.738;2022-12-18T10:40:31;21.65;;;13.63;;
59074;SDS011;44860;53.020;6.738;2022-12-18T10:43:04;19.98;;;13.02;;
59074;SDS011;44860;53.020;6.738;2022-12-18T10:45:36;19.17;;;12.73;;
59074;SDS011;44860;53.020;6.738;2022-12-18T10:48:01;20.33;;;13.63;;
59074;SDS011;44860;53.020;6.738;2022-12-18T10:50:30;19.92;;;13.25;;
59074;SDS011;44860;53.020;6.738;2022-12-18T10:52:59;19.42;;;12.50;;
59074;SDS011;44860;53.020;6.738;2022-12-18T10:55:29;20.80;;;12.93;;
59074;SDS011;44860;53.020;6.738;2022-12-18T10:58:16;20.65;;;12.15;;
59074;SDS011;44860;53.020;6.738;2022-12-18T11:01:13;18.38;;;11.50;;
59074;SDS011;44860;53.020;6.738;2022-12-18T11:03:45;17.45;;;11.65;;
59074;SDS011;44860;53.020;6.738;2022-12-18T11:06:23;18.80;;;11.18;;
59074;SDS011;44860;53.020;6.738;2022-12-18T11:11:27;17.42;;;11.18;;
59074;SDS011;44860;53.020;6.738;2022-12-18T11:13:58;17.67;;;10.30;;
59074;SDS011;44860;53.020;6.738;2022-12-18T11:16:25;17.30;;;10.10;;
59074;SDS011;44860;53.020;6.738;2022-12-18T11:18:51;16.30;;;11.18;;
59074;SDS011;44860;53.020;6.738;2022-12-18T11:21:17;15.02;;;10.68;;
59074;SDS011;44860;53.020;6.738;2022-12-18T11:23:47;15.68;;;10.80;;
59074;SDS011;44860;53.020;6.738;2022-12-18T11:26:16;15.73;;;10.20;;
59074;SDS011;44860;53.020;6.738;2022-12-18T11:29:08;16.88;;;10.63;;
59074;SDS011;44860;53.020;6.738;2022-12-18T11:34:16;16.95;;;9.95;;
59074;SDS011;44860;53.020;6.738;2022-12-18T11:36:49;15.65;;;9.75;;
59074;SDS011;44860;53.020;6.738;2022-12-18T11:39:20;15.45;;;9.80;;
59074;SDS011;44860;53.020;6.738;2022-12-18T11:41:50;15.65;;;10.80;;
59074;SDS011;44860;53.020;6.738;2022-12-18T11:47:40;16.13;;;9.65;;
59074;SDS011;44860;53.020;6.738;2022-12-18T11:50:16;13.80;;;8.90;;
59074;SDS011;44860;53.020;6.738;2022-12-18T11:52:56;16.48;;;10.00;;
59074;SDS011;44860;53.020;6.738;2022-12-18T12:04:07;14.85;;;9.25;;
59074;SDS011;44860;53.020;6.738;2022-12-18T12:20:19;18.88;;;9.93;;
59074;SDS011;44860;53.020;6.738;2022-12-18T12:25:27;20.52;;;11.07;;
59074;SDS011;44860;53.020;6.738;2022-12-18T12:28:15;14.57;;;8.68;;
59074;SDS011;44860;53.020;6.738;2022-12-18T12:31:15;12.52;;;8.43;;
59074;SDS011;44860;53.020;6.738;2022-12-18T12:34:06;14.35;;;8.52;;
59074;SDS011;44860;53.020;6.738;2022-12-18T12:39:44;13.05;;;8.05;;
59074;SDS011;44860;53.020;6.738;2022-12-18T12:42:18;13.02;;;8.07;;
59074;SDS011;44860;53.020;6.738;2022-12-18T12:45:13;14.95;;;8.43;;
59074;SDS011;44860;53.020;6.738;2022-12-18T12:47:45;13.65;;;8.25;;
59074;SDS011;44860;53.020;6.738;2022-12-18T12:50:14;12.38;;;8.00;;
59074;SDS011;44860;53.020;6.738;2022-12-18T12:53:01;11.55;;;7.50;;
59074;SDS011;44860;53.020;6.738;2022-12-18T12:55:32;12.30;;;7.85;;
59074;SDS011;44860;53.020;6.738;2022-12-18T12:58:07;12.65;;;8.27;;
59074;SDS011;44860;53.020;6.738;2022-12-18T13:00:48;13.35;;;7.82;;
59074;SDS011;44860;53.020;6.738;2022-12-18T13:09:05;11.80;;;7.93;;
59074;SDS011;44860;53.020;6.738;2022-12-18T13:11:44;12.45;;;8.23;;
59074;SDS011;44860;53.020;6.738;2022-12-18T13:14:31;13.75;;;8.13;;
59074;SDS011;44860;53.020;6.738;2022-12-18T13:17:13;14.50;;;9.15;;
59074;SDS011;44860;53.020;6.738;2022-12-18T13:19:39;12.52;;;8.68;;
59074;SDS011;44860;53.020;6.738;2022-12-18T13:22:12;13.18;;;8.48;;
59074;SDS011;44860;53.020;6.738;2022-12-18T13:24:52;12.52;;;8.52;;
59074;SDS011;44860;53.020;6.738;2022-12-18T13:35:40;13.45;;;9.20;;
59074;SDS011;44860;53.020;6.738;2022-12-18T13:41:00;13.13;;;8.85;;
59074;SDS011;44860;53.020;6.738;2022-12-18T13:43:28;15.40;;;9.98;;
59074;SDS011;44860;53.020;6.738;2022-12-18T13:46:18;14.38;;;9.15;;
59074;SDS011;44860;53.020;6.738;2022-12-18T13:51:28;14.15;;;9.10;;
59074;SDS011;44860;53.020;6.738;2022-12-18T13:54:06;14.60;;;9.90;;
59074;SDS011;44860;53.020;6.738;2022-12-18T13:56:48;14.65;;;9.35;;
59074;SDS011;44860;53.020;6.738;2022-12-18T13:59:18;14.00;;;9.32;;
59074;SDS011;44860;53.020;6.738;2022-12-18T14:01:57;15.68;;;9.60;;
59074;SDS011;44860;53.020;6.738;2022-12-18T14:06:50;15.32;;;9.43;;
59074;SDS011;44860;53.020;6.738;2022-12-18T14:09:39;13.70;;;9.55;;
59074;SDS011;44860;53.020;6.738;2022-12-18T14:12:17;14.57;;;9.20;;
59074;SDS011;44860;53.020;6.738;2022-12-18T14:15:50;15.27;;;9.57;;
59074;SDS011;44860;53.020;6.738;2022-12-18T14:20:29;15.10;;;9.32;;
59074;SDS011;44860;53.020;6.738;2022-12-18T14:22:57;13.63;;;10.20;;
59074;SDS011;44860;53.020;6.738;2022-12-18T14:25:26;14.88;;;9.70;;
59074;SDS011;44860;53.020;6.738;2022-12-18T14:28:02;13.52;;;9.63;;
59074;SDS011;44860;53.020;6.738;2022-12-18T14:30:41;15.40;;;9.70;;
59074;SDS011;44860;53.020;6.738;2022-12-18T14:36:00;15.32;;;9.40;;
59074;SDS011;44860;53.020;6.738;2022-12-18T14:40:58;15.15;;;9.90;;
59074;SDS011;44860;53.020;6.738;2022-12-18T14:43:24;16.25;;;10.07;;
59074;SDS011;44860;53.020;6.738;2022-12-18T14:45:51;17.10;;;10.57;;
59074;SDS011;44860;53.020;6.738;2022-12-18T14:48:19;17.42;;;10.38;;
59074;SDS011;44860;53.020;6.738;2022-12-18T14:50:57;14.82;;;10.40;;
59074;SDS011;44860;53.020;6.738;2022-12-18T14:53:32;15.55;;;10.57;;
59074;SDS011;44860;53.020;6.738;2022-12-18T14:56:00;14.82;;;10.18;;
59074;SDS011;44860;53.020;6.738;2022-12-18T14:58:27;16.77;;;11.10;;
59074;SDS011;44860;53.020;6.738;2022-12-18T15:00:53;15.55;;;10.68;;
59074;SDS011;44860;53.020;6.738;2022-12-18T15:03:19;16.63;;;11.07;;
59074;SDS011;44860;53.020;6.738;2022-12-18T15:05:46;15.55;;;10.88;;
59074;SDS011;44860;53.020;6.738;2022-12-18T15:08:32;17.58;;;11.32;;
59074;SDS011;44860;53.020;6.738;2022-12-18T15:11:00;15.43;;;11.27;;
59074;SDS011;44860;53.020;6.738;2022-12-18T15:13:26;16.33;;;11.55;;
59074;SDS011;44860;53.020;6.738;2022-12-18T15:15:53;17.98;;;11.27;;
59074;SDS011;44860;53.020;6.738;2022-12-18T15:18:29;16.33;;;11.30;;
59074;SDS011;44860;53.020;6.738;2022-12-18T15:20:58;18.42;;;11.45;;
59074;SDS011;44860;53.020;6.738;2022-12-18T15:26:18;16.52;;;11.05;;
59074;SDS011;44860;53.020;6.738;2022-12-18T15:28:50;15.88;;;11.20;;
59074;SDS011;44860;53.020;6.738;2022-12-18T15:31:24;18.70;;;11.82;;
59074;SDS011;44860;53.020;6.738;2022-12-18T15:34:13;17.55;;;11.95;;
59074;SDS011;44860;53.020;6.738;2022-12-18T15:36:45;17.63;;;11.63;;
59074;SDS011;44860;53.020;6.738;2022-12-18T15:39:11;17.27;;;11.80;;
59074;SDS011;44860;53.020;6.738;2022-12-18T15:41:38;17.15;;;11.65;;
59074;SDS011;44860;53.020;6.738;2022-12-18T15:44:19;17.15;;;11.80;;
59074;SDS011;44860;53.020;6.738;2022-12-18T15:49:13;17.27;;;11.43;;
59074;SDS011;44860;53.020;6.738;2022-12-18T15:51:39;18.77;;;12.40;;
59074;SDS011;44860;53.020;6.738;2022-12-18T15:54:05;19.63;;;12.75;;
59074;SDS011;44860;53.020;6.738;2022-12-18T15:56:36;20.15;;;12.32;;
59074;SDS011;44860;53.020;6.738;2022-12-18T15:59:20;19.10;;;12.32;;
59074;SDS011;44860;53.020;6.738;2022-12-18T16:01:46;18.33;;;12.57;;
59074;SDS011;44860;53.020;6.738;2022-12-18T16:04:14;17.70;;;12.52;;
59074;SDS011;44860;53.020;6.738;2022-12-18T16:06:42;18.95;;;12.27;;
59074;SDS011;44860;53.020;6.738;2022-12-18T16:09:08;19.02;;;12.45;;
59074;SDS011;44860;53.020;6.738;2022-12-18T16:11:34;18.92;;;12.13;;
59074;SDS011;44860;53.020;6.738;2022-12-18T16:14:18;18.65;;;11.95;;
59074;SDS011;44860;53.020;6.738;2022-12-18T16:16:47;17.85;;;12.15;;
59074;SDS011;44860;53.020;6.738;2022-12-18T16:19:14;19.25;;;12.40;;
59074;SDS011;44860;53.020;6.738;2022-12-18T16:21:41;20.63;;;12.85;;
59074;SDS011;44860;53.020;6.738;2022-12-18T16:26:43;18.58;;;12.13;;
59074;SDS011;44860;53.020;6.738;2022-12-18T16:29:09;17.27;;;11.65;;
59074;SDS011;44860;53.020;6.738;2022-12-18T16:31:35;17.95;;;12.05;;